createdAt,value
2017-12-26T00:01:54.791Z,61.50
2017-12-26T00:04:22.292Z,61.70
2017-12-26T00:06:50.570Z,61.20
2017-12-26T00:09:18.912Z,61.30
2017-12-26T00:11:46.451Z,61.30
2017-12-26T00:14:13.957Z,60.50
2017-12-26T00:16:42.288Z,61.20
2017-12-26T00:19:09.790Z,61.20
2017-12-26T00:21:38.095Z,60.60
2017-12-26T00:24:05.664Z,60.60
2017-12-26T00:26:33.162Z,60.60
2017-12-26T00:29:00.661Z,60.90
2017-12-26T00:31:28.169Z,60.90
2017-12-26T00:33:55.656Z,61.30
2017-12-26T00:36:23.954Z,61.30
2017-12-26T00:38:51.488Z,61.30
2017-12-26T00:41:19.892Z,61.00
2017-12-26T00:43:47.393Z,61.00
2017-12-26T00:46:14.915Z,60.60
2017-12-26T00:48:42.421Z,61.60
2017-12-26T00:51:09.922Z,61.50
2017-12-26T00:53:37.465Z,62.00
2017-12-26T00:56:04.961Z,61.80
2017-12-26T00:58:32.460Z,61.60
2017-12-26T01:01:00.744Z,62.10
2017-12-26T01:03:29.022Z,61.60
2017-12-26T01:05:56.529Z,61.70
2017-12-26T01:08:24.036Z,61.70
2017-12-26T01:10:52.297Z,60.80
2017-12-26T01:13:20.550Z,61.30
2017-12-26T01:15:48.073Z,61.20
2017-12-26T01:18:16.362Z,61.20
2017-12-26T01:20:43.859Z,61.20
2017-12-26T01:23:12.193Z,62.00
2017-12-26T01:25:39.681Z,61.80
2017-12-26T01:28:07.174Z,61.80
2017-12-26T01:30:34.701Z,62.00
2017-12-26T01:33:02.964Z,62.50
2017-12-26T01:35:30.457Z,62.50
2017-12-26T01:37:57.997Z,62.90
2017-12-26T01:40:26.281Z,63.40
2017-12-26T01:42:54.546Z,63.40
2017-12-26T01:45:22.853Z,63.50
2017-12-26T01:47:50.349Z,63.50
2017-12-26T01:50:18.609Z,63.70
2017-12-26T01:52:46.149Z,63.70
2017-12-26T01:55:13.644Z,63.80
2017-12-26T01:57:41.136Z,64.00
2017-12-26T02:00:08.656Z,64.10
2017-12-26T02:02:36.149Z,64.60
2017-12-26T02:05:04.485Z,64.60
2017-12-26T02:07:32.010Z,64.90
2017-12-26T02:09:59.507Z,65.20
2017-12-26T02:12:27.019Z,65.20
2017-12-26T02:14:54.562Z,65.40
2017-12-26T02:17:22.837Z,65.60
2017-12-26T02:19:50.343Z,65.60
2017-12-26T02:22:17.857Z,66.20
2017-12-26T02:24:45.352Z,66.30
2017-12-26T02:27:13.618Z,65.90
2017-12-26T02:29:41.133Z,66.00
2017-12-26T02:32:08.662Z,66.00
2017-12-26T02:34:36.218Z,65.90
2017-12-26T02:37:03.721Z,66.00
2017-12-26T02:39:31.227Z,66.00
2017-12-26T02:41:58.761Z,65.90
2017-12-26T02:44:26.288Z,66.10
2017-12-26T02:46:53.775Z,66.10
2017-12-26T02:49:21.321Z,66.40
2017-12-26T02:51:48.840Z,66.50
2017-12-26T02:54:16.384Z,66.60
2017-12-26T02:56:44.659Z,67.10
2017-12-26T02:59:12.930Z,67.10
2017-12-26T03:01:41.209Z,67.80
2017-12-26T03:04:08.722Z,67.50
2017-12-26T03:06:36.233Z,67.80
2017-12-26T03:09:04.497Z,68.20
2017-12-26T03:11:32.784Z,68.30
2017-12-26T03:14:00.288Z,68.30
2017-12-26T03:16:27.819Z,68.50
2017-12-26T03:18:55.332Z,68.80
2017-12-26T03:21:22.832Z,69.00
2017-12-26T03:23:50.335Z,69.00
2017-12-26T03:26:17.862Z,69.10
2017-12-26T03:28:45.373Z,69.10
2017-12-26T03:31:13.636Z,69.20
2017-12-26T03:33:41.928Z,69.60
2017-12-26T03:36:10.192Z,69.70
2017-12-26T03:38:38.506Z,69.50
2017-12-26T03:41:06.020Z,69.40
2017-12-26T03:43:33.539Z,69.70
2017-12-26T03:46:01.044Z,69.80
2017-12-26T03:48:29.336Z,69.60
2017-12-26T03:50:56.833Z,69.60
2017-12-26T03:53:24.328Z,69.90
2017-12-26T03:55:51.861Z,70.00
2017-12-26T03:58:19.355Z,70.00
2017-12-26T04:00:46.853Z,69.90
2017-12-26T04:03:14.366Z,69.90
2017-12-26T04:05:42.644Z,69.80
2017-12-26T04:08:10.174Z,69.80
2017-12-26T04:10:37.695Z,69.80
2017-12-26T04:13:05.264Z,70.10
2017-12-26T04:15:32.767Z,69.90
2017-12-26T04:18:01.112Z,70.20
2017-12-26T04:20:28.598Z,70.20
2017-12-26T04:22:56.862Z,70.20
2017-12-26T04:25:25.173Z,70.00
2017-12-26T04:27:52.691Z,70.00
2017-12-26T04:30:20.988Z,70.60
2017-12-26T04:32:48.516Z,70.20
2017-12-26T04:35:16.012Z,70.30
2017-12-26T04:37:43.513Z,70.30
2017-12-26T04:40:11.034Z,70.00
2017-12-26T04:42:38.529Z,70.10
2017-12-26T04:45:06.029Z,69.90
2017-12-26T04:47:33.572Z,70.00
2017-12-26T04:50:06.944Z,70.00
2017-12-26T04:52:34.458Z,70.00
2017-12-26T04:55:01.962Z,70.20
2017-12-26T04:57:29.454Z,70.30
2017-12-26T04:59:57.782Z,70.30
2017-12-26T05:02:25.271Z,69.80
2017-12-26T05:04:53.528Z,70.50
2017-12-26T05:07:21.091Z,70.50
2017-12-26T05:09:48.585Z,71.20
2017-12-26T05:12:16.079Z,70.70
2017-12-26T05:14:43.595Z,70.60
2017-12-26T05:17:11.102Z,70.60
2017-12-26T05:19:38.611Z,70.80
2017-12-26T05:22:06.131Z,71.60
2017-12-26T05:24:34.396Z,71.20
2017-12-26T05:27:02.535Z,70.60
2017-12-26T05:29:30.055Z,70.50
2017-12-26T05:31:58.311Z,69.10
2017-12-26T05:34:25.820Z,69.10
2017-12-26T05:36:54.094Z,69.60
2017-12-26T05:39:21.571Z,69.60
2017-12-26T05:41:49.047Z,69.80
2017-12-26T05:44:16.580Z,69.80
2017-12-26T05:46:44.081Z,69.40
2017-12-26T05:49:12.417Z,68.70
2017-12-26T05:51:39.947Z,68.70
2017-12-26T05:54:07.442Z,68.80
2017-12-26T05:56:34.928Z,67.60
2017-12-26T05:59:03.203Z,67.80
2017-12-26T06:01:31.468Z,67.40
2017-12-26T06:03:58.956Z,67.40
2017-12-26T06:06:26.492Z,67.30
2017-12-26T06:08:53.995Z,67.30
2017-12-26T06:11:21.490Z,67.30
2017-12-26T06:13:48.992Z,67.20
2017-12-26T06:16:16.485Z,67.30
2017-12-26T06:18:43.983Z,67.30
2017-12-26T06:21:12.279Z,66.90
2017-12-26T06:23:39.776Z,66.90
2017-12-26T06:26:07.267Z,67.00
2017-12-26T06:28:35.559Z,67.20
2017-12-26T06:31:03.047Z,66.50
2017-12-26T06:33:30.623Z,66.60
2017-12-26T06:35:58.213Z,66.10
2017-12-26T06:38:26.483Z,66.30
2017-12-26T06:40:54.740Z,66.20
2017-12-26T06:43:22.252Z,66.20
2017-12-26T06:45:49.743Z,66.40
2017-12-26T06:48:17.230Z,66.50
2017-12-26T06:50:45.509Z,66.40
2017-12-26T06:53:13.045Z,66.40
2017-12-26T06:55:41.331Z,66.30
2017-12-26T06:58:09.611Z,66.10
2017-12-26T07:00:37.867Z,65.50
2017-12-26T07:03:05.354Z,65.50
2017-12-26T07:05:32.871Z,65.50
2017-12-26T07:08:00.370Z,64.60
2017-12-26T07:10:27.876Z,65.10
2017-12-26T07:12:55.376Z,64.90
2017-12-26T07:15:23.631Z,64.10
2017-12-26T07:17:51.168Z,64.00
2017-12-26T07:23:18.463Z,64.20
2017-12-26T07:25:46.710Z,64.70
2017-12-26T07:28:14.195Z,64.70
2017-12-26T07:30:41.699Z,64.80
2017-12-26T07:33:09.199Z,64.40
2017-12-26T07:35:36.682Z,63.50
2017-12-26T07:38:04.198Z,64.10
2017-12-26T07:40:31.709Z,63.50
2017-12-26T07:42:59.200Z,63.50
2017-12-26T07:45:26.716Z,63.80
2017-12-26T07:47:54.199Z,63.80
2017-12-26T07:50:21.703Z,63.40
2017-12-26T07:52:49.966Z,63.40
2017-12-26T07:55:17.479Z,63.40
2017-12-26T07:57:45.016Z,63.30
2017-12-26T08:00:13.902Z,63.10
2017-12-26T08:02:42.155Z,63.80
2017-12-26T08:05:09.662Z,63.70
2017-12-26T08:07:37.151Z,63.80
2017-12-26T08:10:04.645Z,64.00
2017-12-26T08:12:32.158Z,64.20
2017-12-26T08:14:59.647Z,63.90
2017-12-26T08:17:27.912Z,63.30
2017-12-26T08:19:55.411Z,63.30
2017-12-26T08:22:22.903Z,63.40
2017-12-26T08:24:51.155Z,63.10
2017-12-26T08:27:18.668Z,63.10
2017-12-26T08:29:46.172Z,62.60
2017-12-26T08:32:13.676Z,62.80
2017-12-26T08:34:41.182Z,62.40
2017-12-26T08:37:08.688Z,62.70
2017-12-26T08:39:36.194Z,62.00
2017-12-26T08:42:03.719Z,62.60
2017-12-26T08:44:31.210Z,62.10
2017-12-26T08:46:58.706Z,61.40
2017-12-26T08:49:26.231Z,60.30
2017-12-26T08:51:53.765Z,61.20
2017-12-26T08:54:21.238Z,60.90
2017-12-26T08:56:48.796Z,59.50
2017-12-26T08:59:16.295Z,58.90
2017-12-26T09:01:43.898Z,58.80
2017-12-26T09:04:11.431Z,58.10
2017-12-26T09:06:38.935Z,58.40
2017-12-26T09:09:06.477Z,57.90
2017-12-26T09:11:34.007Z,58.10
2017-12-26T09:14:01.494Z,58.10
2017-12-26T09:16:28.985Z,58.20
2017-12-26T09:18:56.500Z,58.30
2017-12-26T09:21:24.764Z,58.60
2017-12-26T09:23:53.037Z,58.00
2017-12-26T09:26:21.362Z,58.40
2017-12-26T09:28:48.835Z,58.30
2017-12-26T09:31:16.323Z,58.40
2017-12-26T09:33:44.615Z,58.40
2017-12-26T09:36:12.876Z,57.90
2017-12-26T09:38:41.136Z,58.20
2017-12-26T09:41:08.641Z,58.20
2017-12-26T09:43:36.141Z,58.20
2017-12-26T09:46:03.639Z,58.70
2017-12-26T09:48:31.148Z,58.30
2017-12-26T09:50:58.642Z,58.30
2017-12-26T09:53:26.905Z,58.60
2017-12-26T09:55:55.680Z,58.70
2017-12-26T09:58:23.263Z,58.50
2017-12-26T10:00:50.774Z,58.40
2017-12-26T10:03:18.282Z,58.10
2017-12-26T10:05:46.543Z,58.70
2017-12-26T10:08:14.819Z,58.60
2017-12-26T10:10:43.104Z,58.80
2017-12-26T10:13:11.420Z,58.70
2017-12-26T10:15:38.944Z,58.80
2017-12-26T10:18:06.608Z,58.40
2017-12-26T10:20:34.120Z,58.60
2017-12-26T10:23:01.625Z,58.70
2017-12-26T10:25:29.136Z,58.40
2017-12-26T10:27:56.641Z,58.50
2017-12-26T10:30:24.166Z,58.20
2017-12-26T10:32:52.436Z,59.00
2017-12-26T10:35:20.023Z,59.00
2017-12-26T10:37:47.541Z,58.50
2017-12-26T10:40:15.051Z,58.40
2017-12-26T10:42:42.560Z,58.20
2017-12-26T10:45:10.072Z,58.60
2017-12-26T10:47:37.571Z,58.70
2017-12-26T10:50:05.078Z,61.40
2017-12-26T10:52:33.368Z,65.00
2017-12-26T10:55:00.864Z,65.00
2017-12-26T10:57:28.361Z,65.80
2017-12-26T10:59:55.895Z,65.80
2017-12-26T11:02:24.168Z,63.80
2017-12-26T11:04:51.684Z,63.90
2017-12-26T11:07:19.231Z,64.00
2017-12-26T11:09:46.741Z,62.80
2017-12-26T11:12:15.012Z,59.50
2017-12-26T11:14:43.291Z,59.20
2017-12-26T11:17:11.567Z,58.30
2017-12-26T11:19:40.304Z,57.60
2017-12-26T11:22:08.592Z,57.10
2017-12-26T11:24:36.082Z,56.50
2017-12-26T11:27:04.585Z,56.30
2017-12-26T11:29:32.127Z,56.40
2017-12-26T11:32:00.388Z,57.30
2017-12-26T11:34:28.652Z,57.30
2017-12-26T11:36:56.181Z,57.30
2017-12-26T11:39:23.795Z,57.00
2017-12-26T11:41:51.331Z,55.90
2017-12-26T11:44:18.829Z,56.50
2017-12-26T11:46:46.357Z,56.40
2017-12-26T11:49:14.676Z,54.80
2017-12-26T11:51:42.576Z,54.80
2017-12-26T11:54:10.188Z,55.20
2017-12-26T11:56:37.932Z,56.10
2017-12-26T11:59:08.484Z,55.60
2017-12-26T12:01:39.321Z,55.60
2017-12-26T12:04:07.386Z,56.30
2017-12-26T12:06:34.973Z,56.60
2017-12-26T12:09:04.136Z,56.90
2017-12-26T12:11:31.849Z,56.70
2017-12-26T12:14:00.990Z,56.70
2017-12-26T12:16:37.286Z,57.00
2017-12-26T12:19:16.514Z,57.40
2017-12-26T12:21:45.544Z,58.10
2017-12-26T12:24:13.869Z,58.30
2017-12-26T12:26:42.053Z,58.40
2017-12-26T12:29:10.343Z,58.30
2017-12-26T12:31:38.758Z,58.40
2017-12-26T12:34:11.086Z,58.90
2017-12-26T12:36:38.636Z,58.90
2017-12-26T12:39:06.594Z,58.90
2017-12-26T12:41:37.125Z,58.20
2017-12-26T12:44:05.135Z,58.20
2017-12-26T12:46:33.641Z,58.70
2017-12-26T12:49:03.738Z,58.70
2017-12-26T12:51:31.345Z,58.60
2017-12-26T12:53:59.793Z,57.40
2017-12-26T12:56:27.840Z,56.20
2017-12-26T12:58:55.386Z,55.90
2017-12-26T13:01:22.887Z,56.60
2017-12-26T13:03:50.398Z,56.10
2017-12-26T13:06:17.906Z,55.40
2017-12-26T13:08:45.454Z,55.90
2017-12-26T13:11:12.948Z,56.60
2017-12-26T13:13:40.907Z,57.40
2017-12-26T13:16:08.455Z,57.70
2017-12-26T13:18:36.736Z,57.40
2017-12-26T13:21:04.249Z,57.40
2017-12-26T13:23:32.552Z,57.80
2017-12-26T13:26:00.184Z,57.80
2017-12-26T13:28:28.540Z,56.00
2017-12-26T13:30:56.037Z,55.90
2017-12-26T13:33:23.788Z,56.30
2017-12-26T13:35:51.629Z,56.50
2017-12-26T13:38:19.237Z,56.10
2017-12-26T13:40:46.779Z,55.70
2017-12-26T13:43:14.275Z,56.20
2017-12-26T13:45:42.166Z,55.60
2017-12-26T13:48:09.695Z,55.80
2017-12-26T13:50:37.511Z,55.40
2017-12-26T13:53:05.304Z,54.90
2017-12-26T13:55:33.821Z,56.60
2017-12-26T13:58:01.310Z,56.50
2017-12-26T14:00:29.579Z,56.80
2017-12-26T14:02:57.850Z,55.20
2017-12-26T14:05:25.331Z,55.20
2017-12-26T14:07:52.861Z,55.50
2017-12-26T14:10:21.180Z,54.90
2017-12-26T14:12:48.817Z,54.10
2017-12-26T14:15:16.316Z,54.20
2017-12-26T14:17:43.815Z,54.20
2017-12-26T14:20:11.310Z,53.60
2017-12-26T14:22:38.941Z,53.00
2017-12-26T14:25:07.281Z,52.50
2017-12-26T14:27:34.767Z,52.50
2017-12-26T14:30:02.273Z,52.00
2017-12-26T14:32:30.026Z,51.70
2017-12-26T14:34:58.426Z,50.20
2017-12-26T14:37:26.787Z,51.20
2017-12-26T14:39:54.275Z,51.30
2017-12-26T14:42:21.771Z,50.90
2017-12-26T14:44:50.060Z,51.40
2017-12-26T14:47:18.329Z,50.50
2017-12-26T14:49:45.817Z,50.40
2017-12-26T14:52:13.344Z,50.60
2017-12-26T14:54:40.824Z,52.20
2017-12-26T14:57:08.340Z,51.70
2017-12-26T14:59:35.856Z,51.40
2017-12-26T15:02:03.352Z,51.10
2017-12-26T15:04:30.869Z,52.70
2017-12-26T15:06:58.370Z,51.40
2017-12-26T15:09:25.892Z,52.50
2017-12-26T15:11:53.387Z,52.80
2017-12-26T15:14:20.893Z,53.30
2017-12-26T15:16:48.379Z,53.70
2017-12-26T15:19:15.888Z,53.30
2017-12-26T15:21:44.145Z,53.60
2017-12-26T15:24:11.628Z,53.70
2017-12-26T15:26:39.131Z,54.10
2017-12-26T15:29:06.619Z,54.30
2017-12-26T15:31:34.902Z,54.70
2017-12-26T15:34:03.151Z,54.90
2017-12-26T15:36:31.431Z,55.40
2017-12-26T15:38:58.944Z,55.40
2017-12-26T15:41:26.436Z,56.40
2017-12-26T15:43:53.919Z,55.00
2017-12-26T15:46:22.285Z,55.60
2017-12-26T15:48:50.578Z,54.50
2017-12-26T15:51:18.116Z,54.50
2017-12-26T15:53:46.408Z,54.50
2017-12-26T15:56:14.960Z,54.30
2017-12-26T15:58:42.695Z,54.30
2017-12-26T16:01:10.721Z,54.60
2017-12-26T16:03:38.491Z,54.80
2017-12-26T16:06:06.380Z,55.20
2017-12-26T16:08:34.090Z,55.50
2017-12-26T16:11:01.571Z,55.00
2017-12-26T16:13:29.095Z,55.20
2017-12-26T16:15:56.670Z,56.10
2017-12-26T16:18:24.159Z,55.50
2017-12-26T16:20:51.993Z,56.10
2017-12-26T16:23:20.258Z,55.40
2017-12-26T16:25:47.748Z,55.40
2017-12-26T16:28:15.263Z,55.70
2017-12-26T16:30:42.789Z,56.00
2017-12-26T16:35:42.538Z,56.00
2017-12-26T16:38:10.035Z,56.30
2017-12-26T16:40:37.848Z,56.70
2017-12-26T16:43:06.117Z,56.80
2017-12-26T16:45:35.277Z,56.90
2017-12-26T16:48:02.787Z,56.40
2017-12-26T16:50:30.289Z,56.50
2017-12-26T16:53:06.157Z,56.50
2017-12-26T16:55:33.751Z,56.50
2017-12-26T16:58:01.723Z,56.20
2017-12-26T17:00:29.409Z,56.60
2017-12-26T17:02:57.008Z,56.40
2017-12-26T17:05:24.673Z,56.60
2017-12-26T17:07:52.548Z,56.60
2017-12-26T17:10:20.291Z,56.70
2017-12-26T17:12:47.780Z,56.70
2017-12-26T17:15:15.708Z,56.50
2017-12-26T17:17:44.273Z,57.10
2017-12-26T17:20:12.364Z,57.10
2017-12-26T17:22:40.151Z,57.30
2017-12-26T17:25:08.276Z,57.50
2017-12-26T17:27:35.798Z,57.60
2017-12-26T17:30:03.376Z,57.80
2017-12-26T17:32:31.108Z,57.80
2017-12-26T17:34:58.611Z,57.80
2017-12-26T17:37:26.115Z,58.10
2017-12-26T17:39:53.971Z,58.30
2017-12-26T17:42:21.539Z,58.90
2017-12-26T17:44:49.426Z,59.00
2017-12-26T17:47:16.922Z,59.50
2017-12-26T17:49:44.454Z,59.50
2017-12-26T17:52:12.013Z,59.80
2017-12-26T17:54:40.361Z,60.40
2017-12-26T17:57:07.986Z,60.30
2017-12-26T17:59:35.547Z,60.50
2017-12-26T18:02:03.071Z,60.90
2017-12-26T18:04:31.323Z,61.50
2017-12-26T18:06:58.812Z,61.50
2017-12-26T18:09:26.322Z,61.70
2017-12-26T18:11:53.856Z,61.70
2017-12-26T18:14:21.348Z,62.10
2017-12-26T18:16:48.871Z,62.20
2017-12-26T18:19:16.368Z,62.20
2017-12-26T18:21:43.992Z,62.50
2017-12-26T18:24:11.498Z,62.20
2017-12-26T18:26:39.799Z,62.30
2017-12-26T18:29:07.338Z,62.30
2017-12-26T18:31:36.360Z,62.50
2017-12-26T18:34:03.890Z,62.60
2017-12-26T18:36:31.443Z,62.50
2017-12-26T18:38:59.780Z,62.60
2017-12-26T18:41:27.266Z,62.60
2017-12-26T18:43:55.544Z,63.10
2017-12-26T18:46:23.856Z,63.00
2017-12-26T18:48:51.396Z,63.00
2017-12-26T18:51:18.931Z,63.10
2017-12-26T18:53:47.245Z,63.40
2017-12-26T18:56:15.140Z,63.40
2017-12-26T18:58:42.947Z,63.10
2017-12-26T19:01:10.530Z,63.10
2017-12-26T19:03:38.084Z,63.20
2017-12-26T19:06:05.570Z,63.10
2017-12-26T19:08:33.143Z,62.90
2017-12-26T19:11:00.639Z,62.60
2017-12-26T19:13:28.186Z,62.40
2017-12-26T19:15:56.516Z,62.40
2017-12-26T19:18:24.063Z,62.40
2017-12-26T19:20:51.825Z,62.50
2017-12-26T19:23:19.498Z,62.60
2017-12-26T19:25:47.063Z,62.90
2017-12-26T19:28:14.593Z,63.10
2017-12-26T19:30:42.218Z,63.20
2017-12-26T19:33:09.968Z,63.20
2017-12-26T19:35:39.009Z,63.90
2017-12-26T19:38:07.471Z,63.60
2017-12-26T19:40:35.178Z,63.50
2017-12-26T19:43:02.766Z,63.50
2017-12-26T19:45:31.094Z,64.00
2017-12-26T19:47:58.649Z,64.00
2017-12-26T19:50:26.209Z,64.30
2017-12-26T19:52:53.779Z,64.20
2017-12-26T19:55:21.327Z,64.40
2017-12-26T19:57:48.813Z,64.70
2017-12-26T20:00:16.322Z,64.60
2017-12-26T20:02:43.854Z,65.00
2017-12-26T20:05:12.171Z,65.70
2017-12-26T20:07:39.734Z,65.70
2017-12-26T20:10:07.318Z,65.50
2017-12-26T20:12:34.890Z,65.50
2017-12-26T20:15:02.421Z,65.40
2017-12-26T20:17:29.975Z,65.50
2017-12-26T20:19:57.595Z,65.70
2017-12-26T20:22:25.140Z,65.60
2017-12-26T20:24:53.416Z,66.40
2017-12-26T20:27:21.682Z,66.30
2017-12-26T20:29:55.761Z,66.00
2017-12-26T20:32:23.281Z,66.00
2017-12-26T20:34:51.013Z,66.30
2017-12-26T20:37:19.473Z,66.60
2017-12-26T20:39:47.013Z,66.60
2017-12-26T20:42:14.848Z,67.50
2017-12-26T20:44:42.414Z,66.50
2017-12-26T20:47:09.953Z,66.40
2017-12-26T20:49:37.465Z,66.30
2017-12-26T20:52:05.034Z,66.30
2017-12-26T20:54:33.336Z,66.10
2017-12-26T20:57:00.878Z,66.10
2017-12-26T20:59:29.197Z,66.00
2017-12-26T21:01:56.734Z,66.00
2017-12-26T21:04:24.317Z,65.40
2017-12-26T21:06:51.895Z,65.50
2017-12-26T21:09:19.442Z,65.20
2017-12-26T21:11:46.979Z,65.10
2017-12-26T21:14:14.626Z,64.80
2017-12-26T21:16:42.156Z,65.50
2017-12-26T21:19:10.454Z,64.60
2017-12-26T21:21:38.011Z,64.50
2017-12-26T21:24:05.550Z,64.40
2017-12-26T21:26:33.854Z,63.70
2017-12-26T21:29:01.422Z,63.70
2017-12-26T21:31:28.958Z,63.70
2017-12-26T21:33:56.501Z,63.20
2017-12-26T21:36:24.826Z,63.40
2017-12-26T21:38:52.377Z,63.40
2017-12-26T21:41:19.936Z,63.70
2017-12-26T21:43:47.469Z,63.90
2017-12-26T21:46:15.058Z,63.70
2017-12-26T21:48:42.605Z,63.90
2017-12-26T21:51:10.150Z,63.80
2017-12-26T21:53:37.732Z,64.30
2017-12-26T21:56:05.276Z,64.50
2017-12-26T21:58:32.838Z,63.50
2017-12-26T22:01:00.420Z,62.70
2017-12-26T22:03:28.777Z,62.00
2017-12-26T22:05:57.070Z,61.90
2017-12-26T22:08:24.619Z,61.90
2017-12-26T22:10:52.159Z,62.00
2017-12-26T22:13:20.477Z,62.20
2017-12-26T22:15:48.066Z,62.10
2017-12-26T22:18:15.652Z,62.50
2017-12-26T22:20:43.195Z,61.90
2017-12-26T22:23:10.740Z,61.60
2017-12-26T22:25:38.294Z,61.80
2017-12-26T22:28:06.650Z,62.30
2017-12-26T22:30:34.230Z,62.20
2017-12-26T22:33:01.797Z,62.10
2017-12-26T22:35:29.401Z,62.60
2017-12-26T22:37:56.951Z,62.80
2017-12-26T22:40:24.529Z,63.00
2017-12-26T22:42:52.098Z,62.40
2017-12-26T22:45:19.641Z,62.40
2017-12-26T22:47:47.189Z,63.20
2017-12-26T22:50:14.751Z,63.90
2017-12-26T22:52:42.298Z,63.80
2017-12-26T22:55:09.837Z,64.30
2017-12-26T22:57:37.401Z,64.10
2017-12-26T23:00:04.961Z,64.00
2017-12-26T23:02:32.515Z,64.10
2017-12-26T23:05:00.102Z,64.60
2017-12-26T23:07:27.654Z,64.90
2017-12-26T23:09:55.219Z,65.10
2017-12-26T23:12:22.808Z,65.30
2017-12-26T23:14:56.875Z,65.50
2017-12-26T23:17:30.261Z,65.50
2017-12-26T23:20:03.500Z,65.30
2017-12-26T23:22:31.831Z,65.00
2017-12-26T23:25:05.081Z,65.00
2017-12-26T23:27:39.201Z,64.80
2017-12-26T23:30:12.325Z,64.80
2017-12-26T23:32:45.528Z,65.00
2017-12-26T23:35:18.793Z,64.50
2017-12-26T23:37:51.956Z,64.60
2017-12-26T23:40:25.196Z,64.60
2017-12-26T23:42:59.330Z,64.30
2017-12-26T23:45:32.601Z,64.10
2017-12-26T23:48:05.757Z,64.60
2017-12-26T23:50:38.987Z,64.80
2017-12-26T23:56:15.570Z,63.80
2017-12-26T23:58:49.449Z,63.80
